createdAt,value
2022-10-19T00:01:22.274Z,94.28
2022-10-19T00:03:52.429Z,95.07
2022-10-19T00:06:27.975Z,94.46
2022-10-19T00:08:59.402Z,95.16
2022-10-19T00:11:27.074Z,94.77
2022-10-19T00:13:55.426Z,94.90
2022-10-19T00:16:23.849Z,94.81
2022-10-19T00:18:50.809Z,94.76
2022-10-19T00:21:19.163Z,94.85
2022-10-19T00:23:46.271Z,94.99
2022-10-19T00:26:13.393Z,94.70
2022-10-19T00:28:40.986Z,95.15
2022-10-19T00:31:13.852Z,94.72
2022-10-19T00:33:41.215Z,95.66
2022-10-19T00:36:20.894Z,94.37
2022-10-19T00:38:47.954Z,95.26
2022-10-19T00:41:15.219Z,95.12
2022-10-19T00:44:07.516Z,94.80
2022-10-19T00:46:37.172Z,95.20
2022-10-19T00:49:10.047Z,94.65
2022-10-19T00:51:40.525Z,94.41
2022-10-19T00:54:08.133Z,94.60
2022-10-19T00:56:35.481Z,94.31
2022-10-19T00:59:04.123Z,93.83
2022-10-19T01:01:31.782Z,93.75
2022-10-19T01:03:58.791Z,93.51
2022-10-19T01:06:25.502Z,93.59
2022-10-19T01:08:52.366Z,93.59
2022-10-19T01:11:42.433Z,92.80
2022-10-19T01:14:24.566Z,93.56
2022-10-19T01:16:57.430Z,93.81
2022-10-19T01:19:51.636Z,93.89
2022-10-19T01:22:43.042Z,93.55
2022-10-19T01:25:31.096Z,93.86
2022-10-19T01:28:04.281Z,93.74
2022-10-19T01:30:43.175Z,93.13
2022-10-19T01:33:42.512Z,93.13
2022-10-19T01:36:24.279Z,92.93
2022-10-19T01:38:55.917Z,93.18
2022-10-19T01:41:41.945Z,92.45
2022-10-19T01:44:16.611Z,92.71
2022-10-19T01:47:03.249Z,92.17
2022-10-19T01:49:39.665Z,91.87
2022-10-19T01:52:09.406Z,91.98
2022-10-19T01:54:44.978Z,91.14
2022-10-19T01:57:14.051Z,91.88
2022-10-19T01:59:41.101Z,92.10
2022-10-19T02:02:09.669Z,91.47
2022-10-19T02:04:37.581Z,91.74
2022-10-19T02:07:04.719Z,91.90
2022-10-19T02:09:31.539Z,92.03
2022-10-19T02:12:01.410Z,90.94
2022-10-19T02:14:33.226Z,91.24
2022-10-19T02:17:05.567Z,91.10
2022-10-19T02:19:32.253Z,91.30
2022-10-19T02:21:59.110Z,91.74
2022-10-19T02:24:25.870Z,91.79
2022-10-19T02:26:53.169Z,92.24
2022-10-19T02:29:19.998Z,92.46
2022-10-19T02:31:46.697Z,92.52
2022-10-19T02:34:13.966Z,92.39
2022-10-19T02:36:40.898Z,92.72
2022-10-19T02:39:08.001Z,92.88
2022-10-19T02:41:38.440Z,92.72
2022-10-19T02:44:15.619Z,92.68
2022-10-19T02:46:48.263Z,92.88
2022-10-19T02:49:15.449Z,93.12
2022-10-19T02:52:00.541Z,93.31
2022-10-19T02:54:27.845Z,93.19
2022-10-19T02:56:55.056Z,93.03
2022-10-19T02:59:21.842Z,93.17
2022-10-19T03:01:48.543Z,93.12
2022-10-19T03:04:15.276Z,93.40
2022-10-19T03:06:41.963Z,93.38
2022-10-19T03:09:09.074Z,93.49
2022-10-19T03:11:35.750Z,92.98
2022-10-19T03:14:02.486Z,92.51
2022-10-19T03:16:29.193Z,93.28
2022-10-19T03:18:55.818Z,91.95
2022-10-19T03:21:22.514Z,93.20
2022-10-19T03:23:49.245Z,92.36
2022-10-19T03:26:17.653Z,93.05
2022-10-19T03:28:44.851Z,92.59
2022-10-19T03:31:12.089Z,92.45
2022-10-19T03:33:38.757Z,91.88
2022-10-19T03:36:27.347Z,92.47
2022-10-19T03:38:58.648Z,92.99
2022-10-19T03:41:30.902Z,92.96
2022-10-19T03:43:57.974Z,93.35
2022-10-19T03:46:24.653Z,92.71
2022-10-19T03:48:51.434Z,92.82
2022-10-19T03:51:20.975Z,92.32
2022-10-19T03:53:48.394Z,92.55
2022-10-19T03:56:17.506Z,92.09
2022-10-19T03:58:45.607Z,92.17
2022-10-19T04:01:15.250Z,91.85
2022-10-19T04:03:42.111Z,92.10
2022-10-19T04:06:15.829Z,92.03
2022-10-19T04:08:45.808Z,91.58
2022-10-19T04:11:14.203Z,92.13
2022-10-19T04:13:41.305Z,92.37
2022-10-19T04:16:08.282Z,91.83
2022-10-19T04:18:35.129Z,91.58
2022-10-19T04:21:04.725Z,91.92
2022-10-19T04:23:33.736Z,91.42
2022-10-19T04:26:06.827Z,91.42
2022-10-19T04:28:34.471Z,91.43
2022-10-19T04:31:05.410Z,91.26
2022-10-19T04:33:33.077Z,91.28
2022-10-19T04:36:05.071Z,91.22
2022-10-19T04:38:32.708Z,91.42
2022-10-19T04:41:20.379Z,90.45
2022-10-19T04:43:47.539Z,90.71
2022-10-19T04:46:16.364Z,90.63
2022-10-19T04:48:43.793Z,91.00
2022-10-19T04:51:11.285Z,91.01
2022-10-19T04:53:39.822Z,90.59
2022-10-19T04:56:08.929Z,90.81
2022-10-19T04:58:35.785Z,90.61
2022-10-19T05:01:13.783Z,90.41
2022-10-19T05:03:40.653Z,90.61
2022-10-19T05:06:08.139Z,90.71
2022-10-19T05:08:35.874Z,90.45
2022-10-19T05:11:07.854Z,90.65
2022-10-19T05:13:34.952Z,90.89
2022-10-19T05:16:03.571Z,90.65
2022-10-19T05:18:30.222Z,90.48
2022-10-19T05:21:06.796Z,90.28
2022-10-19T05:23:34.297Z,90.63
2022-10-19T05:26:04.942Z,90.46
2022-10-19T05:28:32.435Z,90.20
2022-10-19T05:31:13.963Z,90.23
2022-10-19T05:33:41.545Z,90.61
2022-10-19T05:36:15.354Z,90.73
2022-10-19T05:38:42.994Z,90.96
2022-10-19T05:41:10.231Z,90.78
2022-10-19T05:43:36.974Z,90.74
2022-10-19T05:46:09.008Z,90.50
2022-10-19T05:48:36.010Z,91.04
2022-10-19T05:51:05.291Z,90.59
2022-10-19T05:53:32.708Z,91.14
2022-10-19T05:55:59.425Z,90.69
2022-10-19T05:58:26.185Z,91.23
2022-10-19T06:00:54.881Z,90.80
2022-10-19T06:03:22.029Z,91.13
2022-10-19T06:05:52.586Z,90.90
2022-10-19T06:08:20.521Z,91.12
2022-10-19T06:10:48.351Z,91.23
2022-10-19T06:13:16.154Z,90.94
2022-10-19T06:15:42.818Z,92.01
2022-10-19T06:18:11.243Z,91.77
2022-10-19T06:20:39.339Z,91.75
2022-10-19T06:23:06.662Z,91.53
2022-10-19T06:25:34.010Z,91.94
2022-10-19T06:28:01.326Z,91.92
2022-10-19T06:30:28.672Z,91.71
2022-10-19T06:32:55.549Z,91.82
2022-10-19T06:35:22.443Z,91.23
2022-10-19T06:37:49.435Z,91.51
2022-10-19T06:40:16.433Z,91.70
2022-10-19T06:42:43.210Z,92.06
2022-10-19T06:45:10.721Z,92.14
2022-10-19T06:47:37.889Z,92.16
2022-10-19T06:50:06.184Z,92.42
2022-10-19T06:52:34.230Z,92.06
2022-10-19T06:55:01.399Z,91.93
2022-10-19T06:57:28.682Z,92.24
2022-10-19T06:59:55.558Z,92.18
2022-10-19T07:02:22.249Z,92.16
2022-10-19T07:04:48.935Z,91.68
2022-10-19T07:07:15.623Z,91.99
2022-10-19T07:09:42.277Z,92.16
2022-10-19T07:12:10.934Z,92.36
2022-10-19T07:14:39.555Z,92.80
2022-10-19T07:17:07.163Z,92.56
2022-10-19T07:19:33.948Z,92.83
2022-10-19T07:22:00.708Z,92.47
2022-10-19T07:24:27.385Z,92.99
2022-10-19T07:26:54.229Z,92.85
2022-10-19T07:29:21.120Z,92.84
2022-10-19T07:31:47.980Z,92.78
2022-10-19T07:34:14.752Z,92.45
2022-10-19T07:36:45.201Z,92.51
2022-10-19T07:39:13.633Z,92.64
2022-10-19T07:41:41.061Z,92.27
2022-10-19T07:44:09.108Z,92.74
2022-10-19T07:46:38.570Z,93.25
2022-10-19T07:49:08.544Z,92.94
2022-10-19T07:51:35.717Z,92.52
2022-10-19T07:54:02.614Z,92.18
2022-10-19T07:56:29.776Z,92.14
2022-10-19T07:58:58.257Z,91.74
2022-10-19T08:01:27.317Z,91.77
2022-10-19T08:06:41.598Z,91.71
2022-10-19T08:09:08.401Z,91.73
2022-10-19T08:11:35.624Z,91.97
2022-10-19T08:14:03.141Z,91.60
2022-10-19T08:16:41.701Z,91.72
2022-10-19T08:19:13.353Z,91.55
2022-10-19T08:21:43.197Z,90.81
2022-10-19T08:24:11.161Z,90.10
2022-10-19T08:26:38.950Z,90.33
2022-10-19T08:29:10.708Z,90.32
2022-10-19T08:31:37.430Z,90.36
2022-10-19T08:34:04.568Z,90.17
2022-10-19T08:36:32.537Z,90.62
2022-10-19T08:38:59.314Z,90.55
2022-10-19T08:41:41.277Z,89.81
2022-10-19T08:44:26.153Z,89.66
2022-10-19T08:47:08.269Z,89.33
2022-10-19T08:49:35.925Z,89.63
2022-10-19T08:52:34.883Z,88.29
2022-10-19T08:55:15.047Z,88.96
2022-10-19T08:58:17.575Z,89.11
2022-10-19T09:01:11.208Z,88.82
2022-10-19T09:03:56.378Z,89.24
2022-10-19T09:06:30.660Z,89.27
2022-10-19T09:08:57.992Z,89.40
2022-10-19T09:11:28.164Z,89.59
2022-10-19T09:14:36.370Z,88.96
2022-10-19T09:17:10.937Z,89.01
2022-10-19T09:19:37.913Z,89.08
2022-10-19T09:22:08.386Z,88.77
2022-10-19T09:24:42.693Z,89.03
2022-10-19T09:27:39.213Z,89.07
2022-10-19T09:30:15.822Z,88.98
2022-10-19T09:32:42.988Z,89.43
2022-10-19T09:35:28.235Z,89.28
2022-10-19T09:37:55.219Z,89.61
2022-10-19T09:40:27.329Z,89.03
2022-10-19T09:42:58.157Z,89.02
2022-10-19T09:45:40.734Z,88.38
2022-10-19T09:48:28.181Z,88.89
2022-10-19T09:51:00.567Z,89.38
2022-10-19T09:53:28.448Z,89.27
2022-10-19T09:56:00.720Z,88.71
2022-10-19T09:58:32.869Z,88.77
2022-10-19T10:01:02.000Z,89.21
2022-10-19T10:03:40.738Z,88.64
2022-10-19T10:06:14.314Z,88.60
2022-10-19T10:08:57.776Z,88.69
2022-10-19T10:11:28.682Z,89.36
2022-10-19T10:13:56.389Z,89.72
2022-10-19T10:16:24.680Z,89.24
2022-10-19T10:19:06.195Z,89.07
2022-10-19T10:21:36.367Z,89.05
2022-10-19T10:24:16.907Z,88.41
2022-10-19T10:26:46.013Z,88.67
2022-10-19T10:29:20.136Z,88.29
2022-10-19T10:31:55.147Z,88.61
2022-10-19T10:34:45.589Z,88.32
2022-10-19T10:37:20.468Z,87.83
2022-10-19T10:39:51.634Z,87.92
2022-10-19T10:42:20.422Z,88.06
2022-10-19T10:44:52.108Z,87.01
2022-10-19T10:47:22.987Z,87.29
2022-10-19T10:50:02.683Z,86.92
2022-10-19T10:52:34.505Z,87.07
2022-10-19T10:55:04.482Z,87.77
2022-10-19T10:57:34.790Z,87.84
2022-10-19T11:00:06.016Z,87.59
2022-10-19T11:02:58.675Z,86.51
2022-10-19T11:05:37.552Z,86.66
2022-10-19T11:08:12.971Z,86.19
2022-10-19T11:10:44.147Z,86.64
2022-10-19T11:13:33.381Z,87.00
2022-10-19T11:16:10.890Z,86.00
2022-10-19T11:18:45.111Z,86.27
2022-10-19T11:21:17.885Z,85.94
2022-10-19T11:23:56.331Z,86.40
2022-10-19T11:26:47.772Z,86.25
2022-10-19T11:29:29.309Z,85.62
2022-10-19T11:31:56.678Z,86.36
2022-10-19T11:34:48.292Z,86.46
2022-10-19T11:37:23.181Z,85.95
2022-10-19T11:40:00.681Z,85.22
2022-10-19T11:45:18.588Z,86.34
2022-10-19T11:48:06.285Z,85.80
2022-10-19T11:50:38.954Z,86.18
2022-10-19T11:53:30.031Z,85.95
2022-10-19T11:56:03.813Z,86.86
2022-10-19T11:58:52.225Z,86.16
2022-10-19T12:01:29.615Z,86.33
2022-10-19T12:04:17.821Z,86.56
2022-10-19T12:06:59.042Z,87.00
2022-10-19T12:09:34.546Z,86.79
2022-10-19T12:12:07.116Z,87.39
2022-10-19T12:14:38.893Z,87.17
2022-10-19T12:17:09.282Z,86.31
2022-10-19T12:19:43.497Z,86.30
2022-10-19T12:22:16.231Z,86.07
2022-10-19T12:24:43.357Z,86.83
2022-10-19T12:27:14.083Z,86.67
2022-10-19T12:29:43.962Z,86.59
2022-10-19T12:32:13.925Z,86.40
2022-10-19T12:34:48.267Z,86.80
2022-10-19T12:37:21.128Z,87.08
2022-10-19T12:40:12.434Z,86.52
2022-10-19T12:42:48.968Z,86.77
2022-10-19T12:45:30.750Z,86.98
2022-10-19T12:48:12.314Z,86.93
2022-10-19T12:50:58.869Z,86.67
2022-10-19T12:53:36.144Z,85.85
2022-10-19T12:56:15.063Z,86.66
2022-10-19T12:58:46.566Z,86.38
2022-10-19T13:01:21.021Z,86.80
2022-10-19T13:03:47.803Z,87.19
2022-10-19T13:06:22.988Z,86.85
2022-10-19T13:08:52.521Z,86.57
2022-10-19T13:11:19.651Z,86.68
2022-10-19T13:13:56.484Z,87.08
2022-10-19T13:16:33.576Z,86.03
2022-10-19T13:19:03.207Z,86.38
2022-10-19T13:21:52.620Z,85.92
2022-10-19T13:24:26.791Z,86.06
2022-10-19T13:27:02.709Z,85.62
2022-10-19T13:29:41.262Z,86.84
2022-10-19T13:32:33.693Z,85.70
2022-10-19T13:35:34.852Z,85.30
2022-10-19T13:38:20.354Z,85.69
2022-10-19T13:40:49.536Z,85.58
2022-10-19T13:43:21.434Z,85.61
2022-10-19T13:46:04.466Z,85.60
2022-10-19T13:48:38.902Z,85.39
2022-10-19T13:51:39.131Z,85.16
2022-10-19T13:54:31.606Z,85.25
2022-10-19T13:57:04.183Z,85.67
2022-10-19T13:59:32.538Z,85.73
2022-10-19T14:02:29.604Z,85.72
2022-10-19T14:05:02.066Z,85.63
2022-10-19T14:07:57.961Z,85.27
2022-10-19T14:10:32.629Z,85.22
2022-10-19T14:13:00.330Z,85.34
2022-10-19T14:15:28.491Z,85.47
2022-10-19T14:17:55.839Z,85.29
2022-10-19T14:20:36.324Z,85.00
2022-10-19T14:23:20.059Z,84.97
2022-10-19T14:25:51.595Z,85.22
2022-10-19T14:28:18.281Z,85.36
2022-10-19T14:30:45.055Z,84.79
2022-10-19T14:33:14.516Z,84.41
2022-10-19T14:35:44.868Z,84.62
2022-10-19T14:38:20.958Z,84.65
2022-10-19T14:40:47.915Z,84.87
2022-10-19T14:43:24.998Z,84.84
2022-10-19T14:46:07.024Z,85.01
2022-10-19T14:49:03.735Z,84.37
2022-10-19T14:51:35.517Z,84.67
2022-10-19T14:54:23.293Z,84.26
2022-10-19T14:56:56.472Z,84.43
2022-10-19T14:59:26.079Z,84.40
2022-10-19T15:01:55.451Z,84.86
2022-10-19T15:04:25.866Z,84.59
2022-10-19T15:06:53.606Z,84.49
2022-10-19T15:09:37.770Z,84.08
2022-10-19T15:12:16.878Z,84.16
2022-10-19T15:14:44.258Z,83.91
2022-10-19T15:17:27.610Z,83.64
2022-10-19T15:19:56.096Z,84.20
2022-10-19T15:22:37.638Z,84.12
2022-10-19T15:25:06.918Z,83.72
2022-10-19T15:27:35.858Z,83.84
2022-10-19T15:30:07.212Z,83.93
2022-10-19T15:32:37.714Z,84.09
2022-10-19T15:35:27.446Z,84.16
2022-10-19T15:38:02.110Z,83.99
2022-10-19T15:40:37.987Z,84.05
2022-10-19T15:43:44.097Z,83.55
2022-10-19T15:46:13.355Z,83.74
2022-10-19T15:48:51.185Z,83.68
2022-10-19T15:51:23.028Z,83.77
2022-10-19T15:54:00.496Z,83.96
2022-10-19T15:56:29.121Z,83.79
2022-10-19T15:58:57.605Z,83.82
2022-10-19T16:01:26.477Z,83.58
2022-10-19T16:03:53.411Z,83.30
2022-10-19T16:06:21.631Z,83.47
2022-10-19T16:08:48.402Z,82.98
2022-10-19T16:11:16.289Z,83.22
2022-10-19T16:13:42.925Z,83.50
2022-10-19T16:16:12.483Z,82.94
2022-10-19T16:18:39.500Z,83.07
2022-10-19T16:21:06.336Z,82.68
2022-10-19T16:23:37.757Z,82.62
2022-10-19T16:26:07.695Z,82.50
2022-10-19T16:28:34.471Z,82.68
2022-10-19T16:31:01.153Z,82.68
2022-10-19T16:33:27.893Z,82.77
2022-10-19T16:35:54.566Z,82.22
2022-10-19T16:38:21.276Z,82.86
2022-10-19T16:40:48.093Z,83.06
2022-10-19T16:43:14.910Z,82.89
2022-10-19T16:45:44.601Z,82.61
2022-10-19T16:48:14.321Z,82.42
2022-10-19T16:50:40.958Z,82.87
2022-10-19T16:53:12.294Z,82.55
2022-10-19T16:55:40.439Z,83.01
2022-10-19T16:58:07.101Z,82.68
2022-10-19T17:00:33.997Z,82.76
2022-10-19T17:03:00.651Z,82.61
2022-10-19T17:05:27.281Z,82.61
2022-10-19T17:07:53.980Z,82.61
2022-10-19T17:10:20.673Z,83.06
2022-10-19T17:12:47.458Z,82.74
2022-10-19T17:18:03.953Z,82.56
2022-10-19T17:20:32.818Z,82.84
2022-10-19T17:22:59.515Z,82.83
2022-10-19T17:25:26.177Z,82.93
2022-10-19T17:27:52.808Z,83.17
2022-10-19T17:30:19.459Z,83.69
2022-10-19T17:32:46.149Z,83.26
2022-10-19T17:35:12.974Z,83.25
2022-10-19T17:37:39.879Z,83.10
2022-10-19T17:40:07.377Z,82.91
2022-10-19T17:42:36.548Z,82.94
2022-10-19T17:45:03.887Z,83.17
2022-10-19T17:47:30.799Z,82.88
2022-10-19T17:49:57.643Z,83.20
2022-10-19T17:52:24.370Z,82.99
2022-10-19T17:55:11.308Z,83.16
2022-10-19T17:57:38.106Z,83.55
2022-10-19T18:00:07.185Z,83.27
2022-10-19T18:02:39.917Z,83.33
2022-10-19T18:05:07.027Z,83.28
2022-10-19T18:07:33.939Z,83.51
2022-10-19T18:10:00.814Z,83.22
2022-10-19T18:12:27.477Z,83.23
2022-10-19T18:14:54.148Z,83.21
2022-10-19T18:17:24.089Z,82.96
2022-10-19T18:19:53.658Z,83.19
2022-10-19T18:22:21.999Z,83.11
2022-10-19T18:24:49.535Z,82.87
2022-10-19T18:27:16.240Z,82.61
2022-10-19T18:29:43.033Z,82.83
2022-10-19T18:32:09.991Z,82.63
2022-10-19T18:34:36.980Z,83.20
2022-10-19T18:37:03.945Z,82.95
2022-10-19T18:39:30.601Z,83.40
2022-10-19T18:41:57.527Z,83.04
2022-10-19T18:44:26.655Z,82.39
2022-10-19T18:46:55.214Z,82.06
2022-10-19T18:49:24.329Z,81.73
2022-10-19T18:51:55.025Z,81.95
2022-10-19T18:54:23.851Z,81.95
2022-10-19T18:56:50.622Z,82.20
2022-10-19T18:59:18.690Z,82.25
2022-10-19T19:01:45.533Z,82.30
2022-10-19T19:04:12.519Z,81.95
2022-10-19T19:06:39.662Z,82.05
2022-10-19T19:09:10.926Z,81.74
2022-10-19T19:11:40.788Z,81.96
2022-10-19T19:14:12.310Z,81.46
2022-10-19T19:16:39.868Z,81.94
2022-10-19T19:19:07.082Z,82.40
2022-10-19T19:21:35.525Z,82.30
2022-10-19T19:24:04.878Z,82.43
2022-10-19T19:26:34.477Z,81.84
2022-10-19T19:29:02.405Z,81.76
2022-10-19T19:31:29.100Z,81.78
2022-10-19T19:33:56.306Z,81.91
2022-10-19T19:36:23.219Z,82.06
2022-10-19T19:38:51.516Z,82.31
2022-10-19T19:41:18.401Z,82.21
2022-10-19T19:43:45.165Z,82.17
2022-10-19T19:46:16.586Z,82.74
2022-10-19T19:48:45.337Z,82.26
2022-10-19T19:51:14.804Z,82.17
2022-10-19T19:53:41.545Z,81.77
2022-10-19T19:56:09.799Z,81.74
2022-10-19T19:58:36.611Z,81.71
2022-10-19T20:01:14.493Z,81.73
2022-10-19T20:03:42.087Z,82.13
2022-10-19T20:06:09.520Z,81.70
2022-10-19T20:08:36.995Z,82.11
2022-10-19T20:11:10.282Z,81.87
2022-10-19T20:13:37.098Z,81.82
2022-10-19T20:16:12.540Z,81.96
2022-10-19T20:18:44.596Z,82.15
2022-10-19T20:21:11.794Z,82.10
2022-10-19T20:23:38.672Z,81.58
2022-10-19T20:26:05.573Z,81.61
2022-10-19T20:28:33.253Z,81.93
2022-10-19T20:31:02.119Z,82.22
2022-10-19T20:33:30.870Z,82.17
2022-10-19T20:35:57.772Z,82.50
2022-10-19T20:38:25.291Z,82.40
2022-10-19T20:40:52.164Z,82.75
2022-10-19T20:43:19.067Z,82.28
2022-10-19T20:45:45.790Z,82.35
2022-10-19T20:48:12.476Z,82.42
2022-10-19T20:50:40.435Z,82.74
2022-10-19T20:53:07.218Z,82.69
2022-10-19T20:55:34.000Z,82.66
2022-10-19T20:58:00.683Z,82.80
2022-10-19T21:00:27.374Z,83.00
2022-10-19T21:02:54.128Z,82.75
2022-10-19T21:05:20.832Z,82.82
2022-10-19T21:07:47.566Z,82.85
2022-10-19T21:10:14.319Z,83.45
2022-10-19T21:12:41.021Z,83.05
2022-10-19T21:15:08.243Z,83.22
2022-10-19T21:17:35.167Z,82.91
2022-10-19T21:20:01.849Z,83.26
2022-10-19T21:22:28.513Z,82.97
2022-10-19T21:24:55.312Z,83.29
2022-10-19T21:27:22.167Z,83.74
2022-10-19T21:29:48.931Z,83.03
2022-10-19T21:32:15.838Z,82.86
2022-10-19T21:34:42.474Z,82.28
2022-10-19T21:37:09.334Z,82.39
2022-10-19T21:39:36.474Z,82.75
2022-10-19T21:42:03.251Z,83.33
2022-10-19T21:44:29.991Z,83.14
2022-10-19T21:46:56.722Z,83.39
2022-10-19T21:49:23.383Z,82.92
2022-10-19T21:51:53.492Z,82.76
2022-10-19T21:54:24.569Z,82.86
2022-10-19T21:56:51.374Z,83.06
2022-10-19T21:59:18.170Z,83.07
2022-10-19T22:01:44.997Z,82.84
2022-10-19T22:04:14.545Z,83.18
2022-10-19T22:06:41.307Z,83.62
2022-10-19T22:09:10.009Z,83.06
2022-10-19T22:11:36.844Z,82.83
2022-10-19T22:14:04.417Z,82.83
2022-10-19T22:16:32.976Z,82.69
2022-10-19T22:18:59.871Z,82.88
2022-10-19T22:21:29.589Z,82.51
2022-10-19T22:23:58.733Z,82.24
2022-10-19T22:26:27.886Z,82.36
2022-10-19T22:28:55.975Z,82.44
2022-10-19T22:31:23.445Z,82.31
2022-10-19T22:33:50.143Z,82.35
2022-10-19T22:36:16.823Z,82.14
2022-10-19T22:38:43.578Z,82.04
2022-10-19T22:41:10.318Z,81.70
2022-10-19T22:43:37.055Z,81.25
2022-10-19T22:46:03.868Z,81.80
2022-10-19T22:48:30.636Z,81.80
2022-10-19T22:50:57.307Z,82.26
2022-10-19T22:53:24.435Z,81.83
2022-10-19T22:55:51.256Z,81.25
2022-10-19T22:58:18.668Z,81.26
2022-10-19T23:00:45.390Z,81.11
2022-10-19T23:03:12.124Z,81.26
2022-10-19T23:05:38.823Z,81.07
2022-10-19T23:08:05.685Z,81.24
2022-10-19T23:10:32.673Z,80.79
2022-10-19T23:12:59.386Z,80.62
2022-10-19T23:15:26.357Z,80.38
2022-10-19T23:17:53.042Z,80.50
2022-10-19T23:20:19.789Z,80.69
2022-10-19T23:22:46.511Z,80.60
2022-10-19T23:25:13.199Z,80.28
2022-10-19T23:27:40.103Z,80.36
2022-10-19T23:30:07.328Z,80.34
2022-10-19T23:32:34.118Z,80.28
2022-10-19T23:35:00.768Z,80.26
2022-10-19T23:37:27.652Z,79.86
2022-10-19T23:39:54.319Z,80.08
2022-10-19T23:42:21.071Z,79.96
2022-10-19T23:44:48.008Z,80.36
2022-10-19T23:47:14.694Z,79.86
2022-10-19T23:49:41.411Z,80.07
2022-10-19T23:52:08.073Z,80.02
2022-10-19T23:54:34.860Z,80.38
2022-10-19T23:57:01.902Z,80.20
2022-10-19T23:59:31.288Z,80.37
